Airfield :
LOGIN :

Register | Disclaimer

   EN    FR    IT 

 










Legend :    VFR   Marginal VFR   IFR   Intensive IFR   Very Intensive IFR
Visi :
Ceiling :
>= 8 km
>= 3000ft
5 to 8 km
1000 to 3000 ft
1500m to 5 km
500 to 1000 ft
800 to 1500m
200 to 500 ft
< 800m
< 200 ft
Symbols :   Thunderstorms  Fog  Heavy snow  Heavy precipitations  Wind > 20 kt
SIGMETs :     Misc.  Thunderstorms  Icing  Turbulence  Mountain Waves  Volcanic Ashes






- Airport Elevation : 299 ft
- IATA code : EDM


LFRI - La Roche Sur Yon - Les Ajoncs

CURRENT METAR :
  • 280830Z AUTO 19004KT 150V240 9999 SCT038 BKN064 BKN088 08/07 Q1014 TEMPO VRB15G25KT 2000 TSRAGS SCT008 BKN015CB

EXPIRED METARs :
  • 280800Z AUTO 22004KT 9999 ///TCU 08/07 Q1014 TEMPO VRB15G25KT 2000 TSRAGS SCT008 BKN015CB
  • 280730Z AUTO 28008KT 250V310 9999 -RA FEW025/// SCT048/// BKN062/// ///TCU 09/07 Q1014 TEMPO VRB15G25KT 2000 TSRAGS SCT008 BKN015CB
  • 280700Z AUTO 25007KT 220V330 9999 -RA FEW025/// SCT038/// BKN060/// ///TCU 08/07 Q1014 TEMPO VRB15G25KT 2000 TSRAGS SCT008 BKN015CB
  • 280630Z AUTO 21004KT 9999 FEW033/// ///TCU 07/07 Q1014 TEMPO VRB15G25KT 2000 TSRAGS SCT008 BKN015CB
  • 280600Z AUTO 22004KT CAVOK 07/06 Q1014 TEMPO VRB15G25KT 2000 TSRAGS SCT008 BKN015CB

TAF TAF LFRI
Valid from the 28 at 06:00 until the 29 at 06:00 UTC


280500Z 2806/2906 VRB05KT 9999 SCT025
TEMPO 2806/2816 4000 SHRA BKN025CB
PROB40
TEMPO 2806/2812 VRB15G25KT 2000 TSRAGS SCT008 BKN015CB
BECMG 2901/2903 4000 BR
PROB30
TEMPO 2903/2906 0300 FG VV///



MET'MAP, your aeronautical weather chart ! - Copyright ORBIFLY December 2007 - Disclaimer

ORBIFLY MET'MAP TEAM :

Programming & Development : Alexandra Zaïnal
Original concept : Baudouin d'Aumeries
Technical & hardware support : Manuel Goepfert
Assistance : Marc-Olivier Méhu




SOURCES & CREDITS :

   NOAA